sensor_id;sensor_type;location;lat;lon;timestamp;temperature;humidity
21267;DHT22;10791;53.108;18.326;2023-08-01T00:01:51;19.50;99.90
21267;DHT22;10791;53.108;18.326;2023-08-01T00:06:54;19.50;99.90
21267;DHT22;10791;53.108;18.326;2023-08-01T00:11:58;19.40;99.90
21267;DHT22;10791;53.108;18.326;2023-08-01T00:17:02;19.40;99.90
21267;DHT22;10791;53.108;18.326;2023-08-01T00:22:05;19.40;99.90
21267;DHT22;10791;53.108;18.326;2023-08-01T00:27:09;19.40;99.90
21267;DHT22;10791;53.108;18.326;2023-08-01T00:32:13;19.40;99.90
21267;DHT22;10791;53.108;18.326;2023-08-01T00:37:16;19.40;99.90
21267;DHT22;10791;53.108;18.326;2023-08-01T00:42:20;19.40;99.90
21267;DHT22;10791;53.108;18.326;2023-08-01T00:47:24;19.30;99.90
21267;DHT22;10791;53.108;18.326;2023-08-01T00:52:27;19.30;99.90
21267;DHT22;10791;53.108;18.326;2023-08-01T00:57:32;19.30;99.90
21267;DHT22;10791;53.108;18.326;2023-08-01T01:02:36;19.20;99.90
21267;DHT22;10791;53.108;18.326;2023-08-01T01:07:41;19.20;99.90
21267;DHT22;10791;53.108;18.326;2023-08-01T01:12:45;19.20;99.90
21267;DHT22;10791;53.108;18.326;2023-08-01T01:17:48;19.20;99.90
21267;DHT22;10791;53.108;18.326;2023-08-01T01:22:54;19.20;99.90
21267;DHT22;10791;53.108;18.326;2023-08-01T01:27:59;19.10;99.90
21267;DHT22;10791;53.108;18.326;2023-08-01T01:33:04;19.20;99.90
21267;DHT22;10791;53.108;18.326;2023-08-01T01:38:08;19.10;99.90
21267;DHT22;10791;53.108;18.326;2023-08-01T01:43:11;19.20;99.90
21267;DHT22;10791;53.108;18.326;2023-08-01T01:48:15;19.10;99.90
21267;DHT22;10791;53.108;18.326;2023-08-01T01:53:18;19.10;99.90
21267;DHT22;10791;53.108;18.326;2023-08-01T01:58:21;19.10;99.90
21267;DHT22;10791;53.108;18.326;2023-08-01T02:03:24;19.10;99.90
21267;DHT22;10791;53.108;18.326;2023-08-01T02:08:28;19.10;99.90
21267;DHT22;10791;53.108;18.326;2023-08-01T02:13:32;19.10;99.90
21267;DHT22;10791;53.108;18.326;2023-08-01T02:18:37;19.10;99.90
21267;DHT22;10791;53.108;18.326;2023-08-01T02:23:40;19.10;99.90
21267;DHT22;10791;53.108;18.326;2023-08-01T02:28:43;19.10;99.90
21267;DHT22;10791;53.108;18.326;2023-08-01T02:33:46;19.00;99.90
21267;DHT22;10791;53.108;18.326;2023-08-01T02:38:49;19.00;99.90
21267;DHT22;10791;53.108;18.326;2023-08-01T02:43:53;18.90;99.90
21267;DHT22;10791;53.108;18.326;2023-08-01T02:48:57;18.90;99.90
21267;DHT22;10791;53.108;18.326;2023-08-01T02:54:00;18.90;99.90
21267;DHT22;10791;53.108;18.326;2023-08-01T02:59:03;18.80;99.90
21267;DHT22;10791;53.108;18.326;2023-08-01T03:04:08;18.80;99.90
21267;DHT22;10791;53.108;18.326;2023-08-01T03:09:11;18.80;99.90
21267;DHT22;10791;53.108;18.326;2023-08-01T03:14:14;18.80;99.90
21267;DHT22;10791;53.108;18.326;2023-08-01T03:19:18;18.80;99.90
21267;DHT22;10791;53.108;18.326;2023-08-01T03:24:21;18.70;99.90
21267;DHT22;10791;53.108;18.326;2023-08-01T03:29:25;18.70;99.90
21267;DHT22;10791;53.108;18.326;2023-08-01T03:34:28;18.70;99.90
21267;DHT22;10791;53.108;18.326;2023-08-01T03:39:31;18.70;99.90
21267;DHT22;10791;53.108;18.326;2023-08-01T03:44:34;18.60;99.90
21267;DHT22;10791;53.108;18.326;2023-08-01T03:49:38;18.60;99.90
21267;DHT22;10791;53.108;18.326;2023-08-01T03:54:41;18.60;99.90
21267;DHT22;10791;53.108;18.326;2023-08-01T03:59:46;18.60;99.90
21267;DHT22;10791;53.108;18.326;2023-08-01T04:04:52;18.70;99.90
21267;DHT22;10791;53.108;18.326;2023-08-01T04:09:56;18.70;99.90
21267;DHT22;10791;53.108;18.326;2023-08-01T04:15:00;18.60;99.90
21267;DHT22;10791;53.108;18.326;2023-08-01T04:20:04;18.60;99.90
21267;DHT22;10791;53.108;18.326;2023-08-01T04:25:08;18.50;99.90
21267;DHT22;10791;53.108;18.326;2023-08-01T04:30:11;18.40;99.90
21267;DHT22;10791;53.108;18.326;2023-08-01T04:35:15;18.40;99.90
21267;DHT22;10791;53.108;18.326;2023-08-01T04:40:18;18.30;99.90
21267;DHT22;10791;53.108;18.326;2023-08-01T04:45:22;18.30;99.90
21267;DHT22;10791;53.108;18.326;2023-08-01T04:50:25;18.30;99.90
21267;DHT22;10791;53.108;18.326;2023-08-01T04:55:29;18.30;99.90
21267;DHT22;10791;53.108;18.326;2023-08-01T05:00:32;18.30;99.90
21267;DHT22;10791;53.108;18.326;2023-08-01T05:05:36;18.30;99.90
21267;DHT22;10791;53.108;18.326;2023-08-01T05:10:39;18.30;99.90
21267;DHT22;10791;53.108;18.326;2023-08-01T05:15:46;18.30;99.90
21267;DHT22;10791;53.108;18.326;2023-08-01T05:20:52;18.30;99.90
21267;DHT22;10791;53.108;18.326;2023-08-01T05:25:56;18.30;99.90
21267;DHT22;10791;53.108;18.326;2023-08-01T05:30:59;18.30;99.90
21267;DHT22;10791;53.108;18.326;2023-08-01T05:36:03;18.20;99.90
21267;DHT22;10791;53.108;18.326;2023-08-01T05:41:07;18.10;99.90
21267;DHT22;10791;53.108;18.326;2023-08-01T05:46:11;18.10;99.90
21267;DHT22;10791;53.108;18.326;2023-08-01T05:51:14;18.00;99.90
21267;DHT22;10791;53.108;18.326;2023-08-01T05:56:18;18.00;99.90
21267;DHT22;10791;53.108;18.326;2023-08-01T06:01:22;18.00;99.90
21267;DHT22;10791;53.108;18.326;2023-08-01T06:06:25;18.00;99.90
21267;DHT22;10791;53.108;18.326;2023-08-01T06:11:28;17.90;99.90
21267;DHT22;10791;53.108;18.326;2023-08-01T06:16:34;17.80;99.90
21267;DHT22;10791;53.108;18.326;2023-08-01T06:21:38;17.90;99.90
21267;DHT22;10791;53.108;18.326;2023-08-01T06:26:41;17.90;99.90
21267;DHT22;10791;53.108;18.326;2023-08-01T06:31:45;17.80;99.90
21267;DHT22;10791;53.108;18.326;2023-08-01T06:36:48;17.80;99.90
21267;DHT22;10791;53.108;18.326;2023-08-01T06:41:52;17.70;99.90
21267;DHT22;10791;53.108;18.326;2023-08-01T06:46:55;17.70;99.90
21267;DHT22;10791;53.108;18.326;2023-08-01T06:51:59;17.60;99.90
21267;DHT22;10791;53.108;18.326;2023-08-01T06:57:03;17.70;99.90
21267;DHT22;10791;53.108;18.326;2023-08-01T07:02:07;17.70;99.90
21267;DHT22;10791;53.108;18.326;2023-08-01T07:07:11;17.60;99.90
21267;DHT22;10791;53.108;18.326;2023-08-01T07:12:15;17.70;99.90
21267;DHT22;10791;53.108;18.326;2023-08-01T07:17:19;17.80;99.90
21267;DHT22;10791;53.108;18.326;2023-08-01T07:22:22;17.90;99.90
21267;DHT22;10791;53.108;18.326;2023-08-01T07:27:26;18.00;99.90
21267;DHT22;10791;53.108;18.326;2023-08-01T07:32:29;18.10;99.90
21267;DHT22;10791;53.108;18.326;2023-08-01T07:37:33;18.20;99.90
21267;DHT22;10791;53.108;18.326;2023-08-01T07:42:37;18.20;99.90
21267;DHT22;10791;53.108;18.326;2023-08-01T07:47:40;18.20;99.90
21267;DHT22;10791;53.108;18.326;2023-08-01T07:52:44;18.20;99.90
21267;DHT22;10791;53.108;18.326;2023-08-01T07:57:47;18.30;99.90
21267;DHT22;10791;53.108;18.326;2023-08-01T08:02:51;18.20;99.90
21267;DHT22;10791;53.108;18.326;2023-08-01T08:07:55;18.20;99.90
21267;DHT22;10791;53.108;18.326;2023-08-01T08:12:58;18.20;99.90
21267;DHT22;10791;53.108;18.326;2023-08-01T08:18:04;18.20;99.90
21267;DHT22;10791;53.108;18.326;2023-08-01T08:23:08;18.40;99.90
21267;DHT22;10791;53.108;18.326;2023-08-01T08:28:12;18.60;99.90
21267;DHT22;10791;53.108;18.326;2023-08-01T08:33:22;18.60;99.90
21267;DHT22;10791;53.108;18.326;2023-08-01T08:38:26;18.50;99.90
21267;DHT22;10791;53.108;18.326;2023-08-01T08:43:32;18.50;99.90
21267;DHT22;10791;53.108;18.326;2023-08-01T08:48:37;18.50;99.90
21267;DHT22;10791;53.108;18.326;2023-08-01T08:53:44;18.60;99.90
21267;DHT22;10791;53.108;18.326;2023-08-01T08:58:48;18.60;99.90
21267;DHT22;10791;53.108;18.326;2023-08-01T09:03:52;18.70;99.90
21267;DHT22;10791;53.108;18.326;2023-08-01T09:09:11;18.70;99.90
21267;DHT22;10791;53.108;18.326;2023-08-01T09:14:19;18.70;99.90
21267;DHT22;10791;53.108;18.326;2023-08-01T09:19:24;18.70;99.90
21267;DHT22;10791;53.108;18.326;2023-08-01T09:24:30;18.80;99.90
21267;DHT22;10791;53.108;18.326;2023-08-01T09:29:34;19.00;99.90
21267;DHT22;10791;53.108;18.326;2023-08-01T09:34:38;19.10;99.90
21267;DHT22;10791;53.108;18.326;2023-08-01T09:39:41;19.30;99.90
21267;DHT22;10791;53.108;18.326;2023-08-01T09:44:45;19.40;99.90
21267;DHT22;10791;53.108;18.326;2023-08-01T09:49:50;19.70;99.90
21267;DHT22;10791;53.108;18.326;2023-08-01T09:54:53;19.90;99.90
21267;DHT22;10791;53.108;18.326;2023-08-01T09:59:57;20.10;99.90
21267;DHT22;10791;53.108;18.326;2023-08-01T10:05:01;20.00;99.90
21267;DHT22;10791;53.108;18.326;2023-08-01T10:10:06;20.00;99.90
21267;DHT22;10791;53.108;18.326;2023-08-01T10:15:10;19.80;99.90
21267;DHT22;10791;53.108;18.326;2023-08-01T10:20:15;19.70;99.90
21267;DHT22;10791;53.108;18.326;2023-08-01T10:25:19;19.60;99.90
21267;DHT22;10791;53.108;18.326;2023-08-01T10:30:28;19.50;99.90
21267;DHT22;10791;53.108;18.326;2023-08-01T10:35:37;19.50;99.90
21267;DHT22;10791;53.108;18.326;2023-08-01T10:40:42;19.60;99.90
21267;DHT22;10791;53.108;18.326;2023-08-01T10:45:48;19.70;99.90
21267;DHT22;10791;53.108;18.326;2023-08-01T10:50:58;19.90;99.90
21267;DHT22;10791;53.108;18.326;2023-08-01T10:56:03;20.40;99.90
21267;DHT22;10791;53.108;18.326;2023-08-01T11:01:06;20.70;99.90
21267;DHT22;10791;53.108;18.326;2023-08-01T11:06:09;20.60;99.90
21267;DHT22;10791;53.108;18.326;2023-08-01T11:11:14;20.40;99.90
21267;DHT22;10791;53.108;18.326;2023-08-01T11:16:18;20.40;99.90
21267;DHT22;10791;53.108;18.326;2023-08-01T11:21:28;20.40;99.90
21267;DHT22;10791;53.108;18.326;2023-08-01T11:26:32;20.60;99.90
21267;DHT22;10791;53.108;18.326;2023-08-01T11:31:36;20.60;99.90
21267;DHT22;10791;53.108;18.326;2023-08-01T11:36:39;20.50;99.90
21267;DHT22;10791;53.108;18.326;2023-08-01T11:41:44;20.30;99.90
21267;DHT22;10791;53.108;18.326;2023-08-01T11:46:48;20.00;99.90
21267;DHT22;10791;53.108;18.326;2023-08-01T11:51:51;19.50;99.90
21267;DHT22;10791;53.108;18.326;2023-08-01T11:57:00;19.30;99.90
21267;DHT22;10791;53.108;18.326;2023-08-01T12:02:04;19.00;99.90
21267;DHT22;10791;53.108;18.326;2023-08-01T12:07:15;18.90;99.90
21267;DHT22;10791;53.108;18.326;2023-08-01T12:12:19;18.90;99.90
21267;DHT22;10791;53.108;18.326;2023-08-01T12:17:23;19.00;99.90
21267;DHT22;10791;53.108;18.326;2023-08-01T12:22:26;19.00;99.90
21267;DHT22;10791;53.108;18.326;2023-08-01T12:27:30;19.20;99.90
21267;DHT22;10791;53.108;18.326;2023-08-01T12:32:34;19.30;99.90
21267;DHT22;10791;53.108;18.326;2023-08-01T12:37:38;19.40;99.90
21267;DHT22;10791;53.108;18.326;2023-08-01T12:42:41;19.40;99.90
21267;DHT22;10791;53.108;18.326;2023-08-01T12:48:09;19.30;99.90
21267;DHT22;10791;53.108;18.326;2023-08-01T12:53:14;19.30;99.90
21267;DHT22;10791;53.108;18.326;2023-08-01T12:58:17;19.30;99.90
21267;DHT22;10791;53.108;18.326;2023-08-01T13:03:21;19.40;99.90
21267;DHT22;10791;53.108;18.326;2023-08-01T13:08:24;19.50;99.90
21267;DHT22;10791;53.108;18.326;2023-08-01T13:13:27;19.60;99.90
21267;DHT22;10791;53.108;18.326;2023-08-01T13:18:30;19.80;99.90
21267;DHT22;10791;53.108;18.326;2023-08-01T13:23:34;19.90;99.90
21267;DHT22;10791;53.108;18.326;2023-08-01T13:28:37;20.20;99.90
21267;DHT22;10791;53.108;18.326;2023-08-01T13:33:40;20.40;99.90
21267;DHT22;10791;53.108;18.326;2023-08-01T13:38:44;20.60;99.90
21267;DHT22;10791;53.108;18.326;2023-08-01T13:43:47;20.90;99.90
21267;DHT22;10791;53.108;18.326;2023-08-01T13:48:50;20.90;99.90
21267;DHT22;10791;53.108;18.326;2023-08-01T13:53:53;21.00;99.90
21267;DHT22;10791;53.108;18.326;2023-08-01T13:58:58;20.90;99.90
21267;DHT22;10791;53.108;18.326;2023-08-01T14:04:01;20.80;99.90
21267;DHT22;10791;53.108;18.326;2023-08-01T14:09:04;20.70;99.90
21267;DHT22;10791;53.108;18.326;2023-08-01T14:14:08;20.70;99.90
21267;DHT22;10791;53.108;18.326;2023-08-01T14:19:11;20.70;99.90
21267;DHT22;10791;53.108;18.326;2023-08-01T14:24:15;20.60;99.90
21267;DHT22;10791;53.108;18.326;2023-08-01T14:29:18;20.50;99.90
21267;DHT22;10791;53.108;18.326;2023-08-01T14:34:25;20.50;99.90
21267;DHT22;10791;53.108;18.326;2023-08-01T14:39:31;20.30;99.90
21267;DHT22;10791;53.108;18.326;2023-08-01T14:44:39;20.10;99.90
21267;DHT22;10791;53.108;18.326;2023-08-01T14:49:44;19.80;99.90
21267;DHT22;10791;53.108;18.326;2023-08-01T14:54:48;19.80;99.90
21267;DHT22;10791;53.108;18.326;2023-08-01T14:59:51;19.80;99.90
21267;DHT22;10791;53.108;18.326;2023-08-01T15:04:55;19.70;99.90
21267;DHT22;10791;53.108;18.326;2023-08-01T15:09:59;19.70;99.90
21267;DHT22;10791;53.108;18.326;2023-08-01T15:15:06;19.80;99.90
21267;DHT22;10791;53.108;18.326;2023-08-01T15:20:12;20.10;99.90
21267;DHT22;10791;53.108;18.326;2023-08-01T15:25:18;20.70;99.90
21267;DHT22;10791;53.108;18.326;2023-08-01T15:30:21;21.00;99.90
21267;DHT22;10791;53.108;18.326;2023-08-01T15:35:28;20.80;99.90
21267;DHT22;10791;53.108;18.326;2023-08-01T15:40:35;20.60;99.90
21267;DHT22;10791;53.108;18.326;2023-08-01T15:45:39;20.50;99.90
21267;DHT22;10791;53.108;18.326;2023-08-01T15:50:43;20.80;99.90
21267;DHT22;10791;53.108;18.326;2023-08-01T15:55:59;20.80;99.90
21267;DHT22;10791;53.108;18.326;2023-08-01T16:01:06;20.50;99.90
21267;DHT22;10791;53.108;18.326;2023-08-01T16:06:12;21.30;99.90
21267;DHT22;10791;53.108;18.326;2023-08-01T16:11:17;23.00;99.90
21267;DHT22;10791;53.108;18.326;2023-08-01T16:16:27;24.70;99.90
21267;DHT22;10791;53.108;18.326;2023-08-01T16:21:31;24.90;99.90
21267;DHT22;10791;53.108;18.326;2023-08-01T16:26:35;23.80;99.90
21267;DHT22;10791;53.108;18.326;2023-08-01T16:31:39;22.80;99.90
21267;DHT22;10791;53.108;18.326;2023-08-01T16:36:42;22.20;99.90
21267;DHT22;10791;53.108;18.326;2023-08-01T16:41:46;21.90;99.90
21267;DHT22;10791;53.108;18.326;2023-08-01T16:46:50;21.80;99.90
21267;DHT22;10791;53.108;18.326;2023-08-01T16:51:53;21.90;99.90
21267;DHT22;10791;53.108;18.326;2023-08-01T16:56:57;21.90;99.90
21267;DHT22;10791;53.108;18.326;2023-08-01T17:02:00;21.80;99.90
21267;DHT22;10791;53.108;18.326;2023-08-01T17:07:04;21.70;99.90
21267;DHT22;10791;53.108;18.326;2023-08-01T17:12:09;21.70;99.90
21267;DHT22;10791;53.108;18.326;2023-08-01T17:17:12;21.60;99.90
21267;DHT22;10791;53.108;18.326;2023-08-01T17:22:16;21.30;99.90
21267;DHT22;10791;53.108;18.326;2023-08-01T17:27:20;21.40;99.90
21267;DHT22;10791;53.108;18.326;2023-08-01T17:32:24;21.70;99.90
21267;DHT22;10791;53.108;18.326;2023-08-01T17:37:28;21.80;99.90
21267;DHT22;10791;53.108;18.326;2023-08-01T17:42:32;21.60;99.90
21267;DHT22;10791;53.108;18.326;2023-08-01T17:47:36;21.30;99.90
21267;DHT22;10791;53.108;18.326;2023-08-01T17:52:41;21.00;99.90
21267;DHT22;10791;53.108;18.326;2023-08-01T17:57:45;20.80;99.90
21267;DHT22;10791;53.108;18.326;2023-08-01T18:02:56;20.50;99.90
21267;DHT22;10791;53.108;18.326;2023-08-01T18:08:00;20.30;99.90
21267;DHT22;10791;53.108;18.326;2023-08-01T18:13:03;20.20;99.90
21267;DHT22;10791;53.108;18.326;2023-08-01T18:18:11;20.10;99.90
21267;DHT22;10791;53.108;18.326;2023-08-01T18:23:16;19.90;99.90
21267;DHT22;10791;53.108;18.326;2023-08-01T18:28:20;19.90;99.90
21267;DHT22;10791;53.108;18.326;2023-08-01T18:33:24;19.90;99.90
21267;DHT22;10791;53.108;18.326;2023-08-01T18:38:30;19.80;99.90
21267;DHT22;10791;53.108;18.326;2023-08-01T18:43:37;19.80;99.90
21267;DHT22;10791;53.108;18.326;2023-08-01T18:48:41;19.60;99.90
21267;DHT22;10791;53.108;18.326;2023-08-01T18:53:46;19.60;99.90
21267;DHT22;10791;53.108;18.326;2023-08-01T18:58:50;19.50;99.90
21267;DHT22;10791;53.108;18.326;2023-08-01T19:03:55;19.10;99.90
21267;DHT22;10791;53.108;18.326;2023-08-01T19:08:59;18.80;99.90
21267;DHT22;10791;53.108;18.326;2023-08-01T19:14:24;18.60;99.90
21267;DHT22;10791;53.108;18.326;2023-08-01T19:19:28;18.40;99.90
21267;DHT22;10791;53.108;18.326;2023-08-01T19:24:32;18.30;99.90
21267;DHT22;10791;53.108;18.326;2023-08-01T19:29:36;18.20;99.90
21267;DHT22;10791;53.108;18.326;2023-08-01T19:34:39;18.10;99.90
21267;DHT22;10791;53.108;18.326;2023-08-01T19:39:43;18.10;99.90
21267;DHT22;10791;53.108;18.326;2023-08-01T19:44:48;18.00;99.90
21267;DHT22;10791;53.108;18.326;2023-08-01T19:49:54;17.90;99.90
21267;DHT22;10791;53.108;18.326;2023-08-01T19:54:58;17.90;99.90
21267;DHT22;10791;53.108;18.326;2023-08-01T20:00:02;17.80;99.90
21267;DHT22;10791;53.108;18.326;2023-08-01T20:05:10;17.80;99.90
21267;DHT22;10791;53.108;18.326;2023-08-01T20:10:18;17.70;99.90
21267;DHT22;10791;53.108;18.326;2023-08-01T20:15:27;17.60;99.90
21267;DHT22;10791;53.108;18.326;2023-08-01T20:20:31;17.50;99.90
21267;DHT22;10791;53.108;18.326;2023-08-01T20:25:36;17.40;99.90
21267;DHT22;10791;53.108;18.326;2023-08-01T20:30:41;17.40;99.90
21267;DHT22;10791;53.108;18.326;2023-08-01T20:35:45;17.30;99.90
21267;DHT22;10791;53.108;18.326;2023-08-01T20:40:49;17.30;99.90
21267;DHT22;10791;53.108;18.326;2023-08-01T20:45:53;17.30;99.90
21267;DHT22;10791;53.108;18.326;2023-08-01T20:51:00;17.30;99.90
21267;DHT22;10791;53.108;18.326;2023-08-01T20:56:11;17.30;99.90
21267;DHT22;10791;53.108;18.326;2023-08-01T21:01:15;17.30;99.90
21267;DHT22;10791;53.108;18.326;2023-08-01T21:06:19;17.30;99.90
21267;DHT22;10791;53.108;18.326;2023-08-01T21:11:23;17.20;99.90
21267;DHT22;10791;53.108;18.326;2023-08-01T21:16:26;17.20;99.90
21267;DHT22;10791;53.108;18.326;2023-08-01T21:21:30;17.10;99.90
21267;DHT22;10791;53.108;18.326;2023-08-01T21:26:34;17.10;99.90
21267;DHT22;10791;53.108;18.326;2023-08-01T21:31:38;17.00;99.90
21267;DHT22;10791;53.108;18.326;2023-08-01T21:36:43;16.90;99.90
21267;DHT22;10791;53.108;18.326;2023-08-01T21:41:47;16.90;99.90
21267;DHT22;10791;53.108;18.326;2023-08-01T21:46:51;16.80;99.90
21267;DHT22;10791;53.108;18.326;2023-08-01T21:52:00;16.80;99.90
21267;DHT22;10791;53.108;18.326;2023-08-01T21:57:04;16.70;99.90
21267;DHT22;10791;53.108;18.326;2023-08-01T22:02:07;16.70;99.90
21267;DHT22;10791;53.108;18.326;2023-08-01T22:07:13;16.60;99.90
21267;DHT22;10791;53.108;18.326;2023-08-01T22:12:16;16.60;99.90
21267;DHT22;10791;53.108;18.326;2023-08-01T22:17:20;16.50;99.90
21267;DHT22;10791;53.108;18.326;2023-08-01T22:22:23;16.40;99.90
21267;DHT22;10791;53.108;18.326;2023-08-01T22:27:28;16.40;99.90
21267;DHT22;10791;53.108;18.326;2023-08-01T22:32:32;16.40;99.90
21267;DHT22;10791;53.108;18.326;2023-08-01T22:37:38;16.30;99.90
21267;DHT22;10791;53.108;18.326;2023-08-01T22:42:42;16.30;99.90
21267;DHT22;10791;53.108;18.326;2023-08-01T22:47:45;16.20;99.90
21267;DHT22;10791;53.108;18.326;2023-08-01T22:52:51;16.20;99.90
21267;DHT22;10791;53.108;18.326;2023-08-01T22:57:55;16.10;99.90
21267;DHT22;10791;53.108;18.326;2023-08-01T23:03:01;16.10;99.90
21267;DHT22;10791;53.108;18.326;2023-08-01T23:08:05;16.00;99.90
21267;DHT22;10791;53.108;18.326;2023-08-01T23:13:09;15.90;99.90
21267;DHT22;10791;53.108;18.326;2023-08-01T23:18:12;15.80;99.90
21267;DHT22;10791;53.108;18.326;2023-08-01T23:23:16;15.80;99.90
21267;DHT22;10791;53.108;18.326;2023-08-01T23:28:19;15.60;99.90
21267;DHT22;10791;53.108;18.326;2023-08-01T23:33:23;15.60;99.90
21267;DHT22;10791;53.108;18.326;2023-08-01T23:38:26;15.50;99.90
21267;DHT22;10791;53.108;18.326;2023-08-01T23:43:30;15.40;99.90
21267;DHT22;10791;53.108;18.326;2023-08-01T23:48:34;15.40;99.90
21267;DHT22;10791;53.108;18.326;2023-08-01T23:53:37;15.30;99.90
21267;DHT22;10791;53.108;18.326;2023-08-01T23:58:41;15.30;99.90
